createdAt,value
2023-03-10T00:04:15.916Z,45.22
2023-03-10T00:09:20.666Z,45.28
2023-03-10T00:14:24.030Z,47.05
2023-03-10T00:19:27.633Z,44.17
2023-03-10T00:24:32.360Z,50.30
2023-03-10T00:29:36.024Z,51.13
2023-03-10T00:34:39.385Z,46.70
2023-03-10T00:39:44.342Z,49.20
2023-03-10T00:44:48.626Z,47.03
2023-03-10T00:49:52.180Z,49.70
2023-03-10T00:54:57.085Z,47.88
2023-03-10T01:00:00.782Z,44.65
2023-03-10T01:05:04.257Z,44.53
2023-03-10T01:10:10.304Z,48.05
2023-03-10T01:15:14.439Z,46.80
2023-03-10T01:20:19.006Z,46.65
2023-03-10T01:25:24.060Z,47.67
2023-03-10T01:30:27.753Z,111.50
2023-03-10T01:35:31.821Z,114.80
2023-03-10T01:40:37.162Z,90.63
2023-03-10T01:46:29.736Z,58.67
2023-03-10T01:51:36.921Z,41.95
2023-03-10T01:56:42.830Z,45.80
2023-03-10T02:02:03.145Z,39.60
2023-03-10T02:07:07.876Z,33.60
2023-03-10T02:12:15.198Z,26.33
2023-03-10T02:17:20.573Z,25.58
2023-03-10T02:22:24.312Z,20.13
2023-03-10T02:27:32.382Z,14.02
2023-03-10T02:32:38.433Z,9.63
2023-03-10T02:37:42.272Z,7.30
2023-03-10T02:42:46.960Z,7.85
2023-03-10T02:47:50.478Z,10.00
2023-03-10T02:53:00.725Z,6.82
2023-03-10T02:58:05.699Z,14.07
2023-03-10T03:03:10.856Z,9.35
2023-03-10T03:08:14.948Z,8.55
2023-03-10T03:13:19.790Z,6.20
2023-03-10T03:18:23.592Z,5.85
2023-03-10T03:23:26.978Z,5.63
2023-03-10T03:28:32.095Z,4.00
2023-03-10T03:33:35.762Z,7.18
2023-03-10T03:38:39.633Z,4.93
2023-03-10T03:43:44.343Z,7.80
2023-03-10T03:48:47.739Z,9.23
2023-03-10T03:53:51.284Z,6.45
2023-03-10T03:58:56.001Z,8.00
2023-03-10T04:03:59.451Z,4.95
2023-03-10T04:09:02.882Z,6.80
2023-03-10T04:14:07.969Z,5.22
2023-03-10T04:19:11.339Z,4.43
2023-03-10T04:24:14.722Z,7.00
2023-03-10T04:29:19.672Z,5.47
2023-03-10T04:34:23.811Z,7.45
2023-03-10T04:39:27.182Z,8.18
2023-03-10T04:44:31.932Z,6.07
2023-03-10T04:49:35.336Z,6.70
2023-03-10T04:54:38.741Z,6.30
2023-03-10T04:59:43.624Z,7.63
2023-03-10T05:04:47.035Z,4.50
2023-03-10T05:09:50.703Z,7.10
2023-03-10T05:14:55.440Z,7.10
2023-03-10T05:19:59.117Z,6.45
2023-03-10T05:25:02.460Z,5.97
2023-03-10T05:30:09.057Z,4.43
2023-03-10T05:35:14.005Z,4.32
2023-03-10T05:40:19.982Z,5.75
2023-03-10T05:45:24.959Z,4.97
2023-03-10T05:50:28.394Z,5.90
2023-03-10T05:55:32.113Z,5.03
2023-03-10T06:00:37.090Z,5.00
2023-03-10T06:05:40.759Z,3.83
2023-03-10T06:10:44.375Z,3.50
2023-03-10T06:15:51.838Z,5.45
2023-03-10T06:20:55.440Z,5.88
2023-03-10T06:25:59.925Z,6.55
2023-03-10T06:31:07.199Z,6.22
2023-03-10T06:36:11.996Z,4.28
2023-03-10T06:41:16.407Z,5.43
2023-03-10T06:46:21.400Z,3.90
2023-03-10T06:51:32.029Z,5.32
2023-03-10T06:56:36.267Z,7.57
2023-03-10T07:01:41.150Z,6.43
2023-03-10T07:06:44.576Z,7.72
2023-03-10T07:11:47.990Z,8.73
2023-03-10T07:16:52.695Z,6.13
2023-03-10T07:21:56.063Z,5.60
2023-03-10T07:27:00.967Z,4.82
2023-03-10T07:32:06.445Z,5.78
2023-03-10T07:37:11.291Z,4.88
2023-03-10T07:42:14.658Z,10.65
2023-03-10T07:47:19.613Z,6.30
2023-03-10T07:52:23.190Z,7.70
2023-03-10T07:57:27.005Z,6.13
2023-03-10T08:02:31.751Z,5.15
2023-03-10T08:07:35.734Z,5.53
2023-03-10T08:12:39.369Z,5.68
2023-03-10T08:17:44.284Z,5.18
2023-03-10T08:22:47.921Z,4.60
2023-03-10T08:27:51.650Z,5.93
2023-03-10T08:32:56.543Z,6.00
2023-03-10T08:38:00.526Z,6.32
2023-03-10T08:43:06.060Z,5.63
2023-03-10T08:48:10.788Z,5.40
2023-03-10T08:53:14.220Z,6.25
2023-03-10T08:58:17.927Z,5.70
2023-03-10T09:03:22.842Z,6.40
2023-03-10T09:08:27.636Z,5.78
2023-03-10T09:13:31.471Z,5.57
2023-03-10T09:18:36.338Z,3.60
2023-03-10T09:23:41.020Z,1.83
2023-03-10T09:28:44.640Z,3.53
2023-03-10T09:33:49.459Z,1.88
2023-03-10T09:38:53.500Z,3.72
2023-03-10T09:44:03.356Z,2.70
2023-03-10T09:49:15.778Z,2.35
2023-03-10T09:54:39.568Z,4.53
2023-03-10T09:59:46.451Z,3.45
2023-03-10T10:04:54.763Z,2.65
2023-03-10T10:10:04.343Z,4.43
2023-03-10T10:15:16.271Z,1.52
2023-03-10T10:20:25.747Z,3.17
2023-03-10T10:25:33.038Z,3.35
2023-03-10T10:30:38.238Z,5.10
2023-03-10T10:35:45.868Z,2.40
2023-03-10T10:40:51.582Z,3.30
2023-03-10T10:45:57.231Z,2.33
2023-03-10T10:51:02.360Z,2.03
2023-03-10T10:56:07.952Z,3.88
2023-03-10T11:01:13.892Z,3.53
2023-03-10T11:06:25.452Z,2.28
2023-03-10T11:11:36.430Z,2.90
2023-03-10T11:16:49.456Z,2.03
2023-03-10T11:21:59.903Z,2.50
2023-03-10T11:27:10.294Z,2.92
2023-03-10T11:32:23.183Z,2.15
2023-03-10T11:37:33.177Z,1.98
2023-03-10T11:42:46.315Z,3.45
2023-03-10T11:48:08.266Z,2.58
2023-03-10T11:53:17.447Z,2.75
2023-03-10T11:58:26.088Z,2.47
2023-03-10T12:03:41.798Z,4.05
2023-03-10T12:08:47.778Z,3.45
2023-03-10T12:13:54.139Z,1.63
2023-03-10T12:18:58.146Z,1.85
2023-03-10T12:24:04.545Z,2.75
2023-03-10T12:29:31.630Z,4.55
2023-03-10T12:34:35.116Z,2.95
2023-03-10T12:39:41.846Z,3.00
2023-03-10T12:44:56.110Z,2.65
2023-03-10T12:50:06.347Z,3.67
2023-03-10T12:55:24.319Z,2.50
2023-03-10T13:00:40.162Z,2.58
2023-03-10T13:05:58.162Z,3.78
2023-03-10T13:11:04.759Z,3.50
2023-03-10T13:16:09.431Z,4.97
2023-03-10T13:21:25.199Z,2.35
2023-03-10T13:26:30.622Z,2.30
2023-03-10T13:31:35.216Z,5.45
2023-03-10T13:36:40.356Z,2.50
2023-03-10T13:41:47.653Z,3.38
2023-03-10T13:46:53.348Z,4.00
2023-03-10T13:51:58.441Z,2.63
2023-03-10T13:57:08.397Z,3.50
2023-03-10T14:02:18.971Z,1.40
2023-03-10T14:07:24.310Z,3.53
2023-03-10T14:12:39.863Z,1.92
2023-03-10T14:17:46.604Z,4.00
2023-03-10T14:22:49.975Z,4.07
2023-03-10T14:27:57.325Z,3.17
2023-03-10T14:33:02.580Z,2.67
2023-03-10T14:38:05.963Z,5.68
2023-03-10T14:43:16.652Z,2.58
2023-03-10T14:48:22.758Z,3.05
2023-03-10T14:53:27.728Z,5.00
2023-03-10T14:58:35.763Z,3.80
2023-03-10T15:03:39.115Z,4.82
2023-03-10T15:08:42.631Z,4.13
2023-03-10T15:13:47.379Z,3.95
2023-03-10T15:18:52.608Z,3.97
2023-03-10T15:23:56.750Z,5.03
2023-03-10T15:29:01.529Z,5.07
2023-03-10T15:34:05.355Z,3.63
2023-03-10T15:39:09.866Z,3.47
2023-03-10T15:44:15.838Z,4.38
2023-03-10T15:49:19.832Z,2.83
2023-03-10T15:54:23.434Z,3.17
2023-03-10T15:59:28.442Z,2.97
2023-03-10T16:04:32.286Z,13.50
2023-03-10T16:09:35.674Z,7.97
2023-03-10T16:14:40.335Z,8.52
2023-03-10T16:19:44.006Z,5.80
2023-03-10T16:24:47.495Z,17.35
2023-03-10T16:29:52.493Z,16.05
2023-03-10T16:34:55.894Z,24.02
2023-03-10T16:39:59.455Z,12.07
2023-03-10T16:45:04.367Z,11.55
2023-03-10T16:50:12.513Z,11.77
2023-03-10T16:55:17.975Z,18.92
2023-03-10T17:00:23.497Z,11.60
2023-03-10T17:05:26.933Z,8.20
2023-03-10T17:10:30.729Z,11.13
2023-03-10T17:15:35.515Z,12.60
2023-03-10T17:20:39.342Z,12.75
2023-03-10T17:25:43.891Z,14.75
2023-03-10T17:30:48.775Z,5.07
2023-03-10T17:35:52.178Z,5.30
2023-03-10T17:40:55.575Z,5.82
2023-03-10T17:46:01.781Z,6.00
2023-03-10T17:51:06.181Z,4.03
2023-03-10T17:56:10.478Z,5.32
2023-03-10T18:01:17.704Z,4.00
2023-03-10T18:06:23.462Z,4.50
2023-03-10T18:11:27.877Z,5.00
2023-03-10T18:16:35.496Z,5.68
2023-03-10T18:21:39.313Z,4.95
2023-03-10T18:26:43.997Z,8.60
2023-03-10T18:31:49.078Z,3.63
2023-03-10T18:36:52.795Z,6.47
2023-03-10T18:41:56.265Z,3.47
2023-03-10T18:47:01.964Z,3.08
2023-03-10T18:52:06.420Z,5.35
2023-03-10T18:57:09.862Z,2.97
2023-03-10T19:02:16.331Z,4.55
2023-03-10T19:07:21.435Z,4.30
2023-03-10T19:12:25.101Z,3.90
2023-03-10T19:17:30.365Z,3.47
2023-03-10T19:22:34.978Z,3.85
2023-03-10T19:27:40.375Z,4.95
2023-03-10T19:32:46.110Z,5.22
2023-03-10T19:37:57.447Z,5.15
2023-03-10T19:43:01.296Z,4.45
2023-03-10T19:48:06.432Z,6.05
2023-03-10T19:53:09.865Z,7.10
2023-03-10T19:58:13.290Z,8.75
2023-03-10T20:03:18.176Z,7.30
2023-03-10T20:08:21.768Z,9.15
2023-03-10T20:13:25.182Z,7.30
2023-03-10T20:18:30.045Z,7.15
2023-03-10T20:23:34.901Z,5.63
2023-03-10T20:28:39.824Z,5.22
2023-03-10T20:33:44.601Z,31.15
2023-03-10T20:38:49.913Z,9.95
2023-03-10T20:43:53.810Z,6.88
2023-03-10T20:48:58.617Z,9.32
2023-03-10T20:54:02.807Z,7.10
2023-03-10T20:59:06.186Z,7.35
2023-03-10T21:04:10.951Z,4.93
2023-03-10T21:09:14.953Z,3.65
2023-03-10T21:14:19.136Z,4.40
2023-03-10T21:19:23.931Z,3.88
2023-03-10T21:24:27.480Z,3.33
2023-03-10T21:29:31.731Z,2.88
2023-03-10T21:34:36.534Z,3.55
2023-03-10T21:39:39.996Z,51.80
2023-03-10T21:44:43.935Z,5.63
2023-03-10T21:49:48.767Z,4.07
2023-03-10T21:54:52.139Z,2.58
2023-03-10T21:59:55.505Z,3.53
2023-03-10T22:05:00.558Z,4.90
2023-03-10T22:10:04.594Z,6.75
2023-03-10T22:15:10.142Z,13.20
2023-03-10T22:20:20.709Z,11.68
2023-03-10T22:25:24.525Z,5.35
2023-03-10T22:30:29.908Z,4.07
2023-03-10T22:35:38.918Z,5.03
2023-03-10T22:40:42.779Z,5.15
2023-03-10T22:45:46.843Z,4.95
2023-03-10T22:50:51.692Z,3.80
2023-03-10T22:55:55.097Z,4.85
2023-03-10T23:00:58.626Z,2.45
2023-03-10T23:06:06.019Z,3.17
2023-03-10T23:11:11.429Z,2.75
2023-03-10T23:16:18.033Z,2.28
2023-03-10T23:21:22.990Z,1.55
2023-03-10T23:26:27.182Z,2.85
2023-03-10T23:31:30.713Z,1.15
2023-03-10T23:36:35.800Z,1.67
2023-03-10T23:41:39.197Z,2.55
2023-03-10T23:46:42.948Z,2.58
2023-03-10T23:51:48.842Z,1.80
2023-03-10T23:56:52.843Z,2.55
